Time;durP1;ratioP1;P1;durP2;ratioP2;P2;SDS_P1;SDS_P2;PMS_P1;PMS_P2;Temp;Humidity;BMP_temperature;BMP_pressure;BME280_temperature;BME280_humidity;BME280_pressure;Samples;Min_cycle;Max_cycle;Signal;HPM_P1;HPM_P2
2022/04/22 00:00:15;;;;;;;22.33;10.83;;;;;;;-145.18;100.00;60484.78;5016959;28;20161;-70
2022/04/22 00:02:41;;;;;;;24.67;11.40;;;;;;;-145.18;100.00;60484.78;5028630;28;20025;-70
2022/04/22 00:05:06;;;;;;;24.87;10.60;;;;;;;-145.18;100.00;60484.78;5029885;28;20104;-69
2022/04/22 00:07:32;;;;;;;24.30;11.03;;;;;;;-145.18;100.00;60484.78;5022630;28;20029;-70
2022/04/22 00:09:57;;;;;;;19.43;10.70;;;;;;;-145.18;100.00;60484.78;5030059;28;20033;-70
2022/04/22 00:12:23;;;;;;;20.97;10.50;;;;;;;-145.18;100.00;60484.78;5028043;28;20096;-70
2022/04/22 00:14:48;;;;;;;23.97;10.67;;;;;;;-145.18;100.00;60484.78;5029204;28;20132;-70
2022/04/22 00:17:14;;;;;;;20.77;10.50;;;;;;;-145.18;100.00;60484.78;5018363;28;20485;-70
2022/04/22 00:19:40;;;;;;;21.93;10.27;;;;;;;-145.18;100.00;60484.78;5029557;28;20049;-70
2022/04/22 00:22:05;;;;;;;20.20;9.90;;;;;;;-145.18;100.00;60484.78;5009838;28;20036;-70
2022/04/22 00:24:31;;;;;;;22.20;9.40;;;;;;;-145.18;100.00;60484.78;5025211;28;20056;-70
2022/04/22 00:26:56;;;;;;;20.07;9.70;;;;;;;-145.18;100.00;60484.78;5026741;28;20493;-70
2022/04/22 00:29:21;;;;;;;18.87;9.77;;;;;;;-145.18;100.00;60484.78;5003757;28;20041;-70
2022/04/22 00:31:47;;;;;;;18.23;9.23;;;;;;;-145.18;100.00;60484.78;5024283;28;20493;-70
2022/04/22 00:34:12;;;;;;;17.77;9.37;;;;;;;-145.18;100.00;60484.78;5028902;28;20033;-70
2022/04/22 00:36:37;;;;;;;17.43;9.53;;;;;;;-145.18;100.00;60484.78;5033657;28;20118;-70
2022/04/22 00:39:03;;;;;;;21.77;9.43;;;;;;;-145.18;100.00;60484.78;5028734;28;20029;-70
2022/04/22 00:41:29;;;;;;;26.47;10.47;;;;;;;-145.18;100.00;60484.78;5011580;28;20017;-70
2022/04/22 00:43:55;;;;;;;18.80;9.17;;;;;;;-145.18;100.00;60484.78;5027860;28;20023;-70
2022/04/22 00:46:21;;;;;;;21.40;9.90;;;;;;;-145.18;100.00;60484.78;5023915;28;20030;-70
2022/04/22 00:48:46;;;;;;;19.63;9.87;;;;;;;-145.18;100.00;60484.78;5018091;28;20033;-70
2022/04/22 00:51:12;;;;;;;19.37;9.73;;;;;;;-145.18;100.00;60484.78;5023264;28;20478;-70
2022/04/22 00:53:40;;;;;;;23.20;9.93;;;;;;;-145.18;100.00;60484.78;5026527;28;20064;-70
2022/04/22 00:56:08;;;;;;;18.83;9.83;;;;;;;-145.18;100.00;60484.78;5024582;28;20045;-70
2022/04/22 00:58:36;;;;;;;19.53;9.87;;;;;;;-145.18;100.00;60484.78;5026890;28;20496;-70
2022/04/22 01:01:02;;;;;;;19.20;10.00;;;;;;;-145.18;100.00;60484.78;5027068;28;20207;-70
2022/04/22 01:03:28;;;;;;;22.47;10.47;;;;;;;-145.18;100.00;60484.78;5013847;28;20542;-70
2022/04/22 01:11:31;;;;;;;22.43;11.53;;;;;;;-145.18;100.00;60484.78;4994066;28;20597;-70
2022/04/22 01:13:58;;;;;;;26.53;12.53;;;;;;;-145.18;100.00;60484.78;5028009;28;20470;-70
2022/04/22 01:16:24;;;;;;;23.47;9.67;;;;;;;-145.18;100.00;60484.78;5015656;28;20032;-70
2022/04/22 01:18:50;;;;;;;24.80;10.87;;;;;;;-145.18;100.00;60484.78;5021725;28;20018;-70
2022/04/22 01:21:15;;;;;;;24.40;10.43;;;;;;;-145.18;100.00;60484.78;5014785;28;20067;-70
2022/04/22 01:23:41;;;;;;;19.53;9.50;;;;;;;-145.18;100.00;60484.78;5012465;28;20485;-70
2022/04/22 01:26:07;;;;;;;19.70;10.07;;;;;;;-145.18;100.00;60484.78;5013379;28;20025;-70
2022/04/22 01:28:33;;;;;;;22.67;10.17;;;;;;;-145.18;100.00;60484.78;5009533;28;20564;-70
2022/04/22 01:30:59;;;;;;;22.37;10.13;;;;;;;-145.18;100.00;60484.78;5012278;28;20040;-70
2022/04/22 01:33:25;;;;;;;26.80;10.70;;;;;;;-145.18;100.00;60484.78;5012029;28;20083;-70
2022/04/22 01:35:50;;;;;;;23.10;10.20;;;;;;;-145.18;100.00;60484.78;5021948;28;20030;-70
2022/04/22 01:38:16;;;;;;;21.43;10.40;;;;;;;-145.18;100.00;60484.78;5013397;28;20018;-70
2022/04/22 01:40:41;;;;;;;19.17;9.40;;;;;;;-145.18;100.00;60484.78;5018391;28;20386;-70
2022/04/22 01:43:08;;;;;;;21.60;10.50;;;;;;;-145.18;100.00;60484.78;5014984;28;20044;-70
2022/04/22 01:45:33;;;;;;;20.00;10.77;;;;;;;-145.18;100.00;60484.78;4997577;28;20033;-70
2022/04/22 01:47:58;;;;;;;27.07;10.27;;;;;;;-145.18;100.00;60484.78;5017589;28;20036;-70
2022/04/22 01:50:24;;;;;;;18.87;9.07;;;;;;;-145.18;100.00;60484.78;5013927;28;20404;-70
2022/04/22 01:52:49;;;;;;;23.63;9.23;;;;;;;-145.18;100.00;60484.78;5014022;28;20179;-70
2022/04/22 01:55:15;;;;;;;20.47;8.97;;;;;;;-145.18;100.00;60484.78;5017136;28;20029;-70
2022/04/22 01:57:41;;;;;;;20.63;8.83;;;;;;;-145.18;100.00;60484.78;5028577;28;20534;-70
2022/04/22 02:00:07;;;;;;;17.37;8.90;;;;;;;-145.18;100.00;60484.78;5025728;28;20021;-70
2022/04/22 02:02:33;;;;;;;17.93;9.33;;;;;;;-145.18;100.00;60484.78;5029528;28;20112;-70
2022/04/22 02:04:58;;;;;;;16.87;8.17;;;;;;;-145.18;100.00;60484.78;5027810;28;20519;-70
2022/04/22 02:07:24;;;;;;;17.30;8.50;;;;;;;-145.18;100.00;60484.78;5032044;28;20531;-70
2022/04/22 02:09:49;;;;;;;14.67;7.80;;;;;;;-145.18;100.00;60484.78;5016798;28;20039;-70
2022/04/22 02:12:15;;;;;;;18.60;7.63;;;;;;;-145.18;100.00;60484.78;5014138;28;20036;-70
2022/04/22 02:14:40;;;;;;;18.37;7.87;;;;;;;-145.18;100.00;60484.78;5028554;28;20025;-70
2022/04/22 02:17:06;;;;;;;14.80;6.97;;;;;;;-145.18;100.00;60484.78;5026011;28;20033;-70
2022/04/22 02:19:31;;;;;;;14.17;7.00;;;;;;;-145.18;100.00;60484.78;5032948;28;20017;-70
2022/04/22 02:21:57;;;;;;;15.93;7.40;;;;;;;-145.18;100.00;60484.78;5033210;28;20072;-70
2022/04/22 02:24:22;;;;;;;19.40;7.27;;;;;;;-145.18;100.00;60484.78;5029697;28;20397;-70
2022/04/22 02:29:31;;;;;;;14.53;6.93;;;;;;;-145.18;100.00;60484.78;5012800;28;20069;-70
2022/04/22 02:31:57;;;;;;;13.53;6.60;;;;;;;-145.18;100.00;60484.78;5013776;28;20481;-70
2022/04/22 02:34:23;;;;;;;15.60;6.80;;;;;;;-145.18;100.00;60484.78;5014892;28;20773;-70
2022/04/22 02:36:50;;;;;;;12.53;5.77;;;;;;;-145.18;100.00;60484.78;5030528;28;20122;-70
2022/04/22 02:39:16;;;;;;;12.67;5.90;;;;;;;-145.18;100.00;60484.78;5027662;28;20061;-70
2022/04/22 02:47:10;;;;;;;11.17;5.27;;;;;;;-145.18;100.00;60484.78;5031153;28;20083;-70
2022/04/22 02:49:35;;;;;;;13.17;5.97;;;;;;;-145.18;100.00;60484.78;5024626;28;20061;-70
2022/04/22 02:52:01;;;;;;;10.80;5.67;;;;;;;-145.18;100.00;60484.78;5024970;28;20087;-69
2022/04/22 02:54:30;;;;;;;10.73;5.20;;;;;;;-145.18;100.00;60484.78;5029593;28;20032;-69
2022/04/22 02:56:56;;;;;;;11.40;5.67;;;;;;;-145.18;100.00;60484.78;5025658;28;20362;-70
2022/04/22 02:59:22;;;;;;;11.80;5.30;;;;;;;-145.18;100.00;60484.78;5022812;28;20030;-70
2022/04/22 03:01:48;;;;;;;12.80;5.70;;;;;;;-145.18;100.00;60484.78;5024878;28;20029;-70
2022/04/22 03:04:15;;;;;;;13.50;5.33;;;;;;;-145.18;100.00;60484.78;5026429;28;20056;-70
2022/04/22 03:06:41;;;;;;;13.97;4.93;;;;;;;-145.18;100.00;60484.78;5026494;28;20104;-70
2022/04/22 03:09:06;;;;;;;9.83;5.30;;;;;;;-145.18;100.00;60484.78;5026705;28;20451;-70
2022/04/22 03:11:31;;;;;;;9.27;4.87;;;;;;;-145.18;100.00;60484.78;5013015;28;20481;-69
2022/04/22 03:13:57;;;;;;;11.50;4.53;;;;;;;-145.18;100.00;60484.78;5025448;28;20033;-70
2022/04/22 03:16:26;;;;;;;10.47;4.30;;;;;;;-145.18;100.00;60484.78;5031998;28;20029;-70
2022/04/22 03:18:52;;;;;;;9.10;4.10;;;;;;;-145.18;100.00;60484.78;5027457;28;20025;-70
2022/04/22 03:21:18;;;;;;;12.13;4.30;;;;;;;-145.18;100.00;60484.78;5005877;28;20025;-70
2022/04/22 03:23:43;;;;;;;10.23;5.07;;;;;;;-145.18;100.00;60484.78;5022567;28;20013;-70
2022/04/22 03:26:08;;;;;;;8.07;3.97;;;;;;;-145.18;100.00;60484.78;5030277;28;20052;-70
2022/04/22 03:28:34;;;;;;;8.77;4.27;;;;;;;-145.18;100.00;60484.78;5029432;28;20026;-70
2022/04/22 03:30:59;;;;;;;9.17;4.33;;;;;;;-145.18;100.00;60484.78;5020184;28;20025;-70
2022/04/22 03:33:25;;;;;;;9.17;4.10;;;;;;;-145.18;100.00;60484.78;5030016;28;20281;-70
2022/04/22 03:35:50;;;;;;;6.67;3.37;;;;;;;-145.18;100.00;60484.78;5021471;28;20076;-70
2022/04/22 03:38:20;;;;;;;8.77;3.97;;;;;;;-145.18;100.00;60484.78;5007746;28;20482;-70
2022/04/22 03:40:47;;;;;;;7.90;3.97;;;;;;;-145.18;100.00;60484.78;5031328;28;20037;-70
2022/04/22 03:43:13;;;;;;;11.37;4.07;;;;;;;-145.18;100.00;60484.78;5029706;28;20022;-70
2022/04/22 03:45:39;;;;;;;9.17;3.80;;;;;;;-145.18;100.00;60484.78;5028761;28;20033;-70
2022/04/22 03:48:06;;;;;;;9.30;3.90;;;;;;;-145.18;100.00;60484.78;5031058;28;20083;-70
2022/04/22 03:50:31;;;;;;;7.13;3.63;;;;;;;-145.18;100.00;60484.78;5001672;28;20605;-70
2022/04/22 03:52:57;;;;;;;10.47;4.30;;;;;;;-145.18;100.00;60484.78;5012692;28;20017;-70
2022/04/22 03:55:22;;;;;;;7.27;3.90;;;;;;;-145.18;100.00;60484.78;5023325;28;20045;-70
2022/04/22 04:00:32;;;;;;;9.60;3.37;;;;;;;-145.18;100.00;60484.78;5022150;28;20041;-70
2022/04/22 04:02:58;;;;;;;5.80;3.20;;;;;;;-145.18;100.00;60484.78;5031127;28;20470;-70
2022/04/22 04:05:23;;;;;;;7.27;3.57;;;;;;;-145.18;100.00;60484.78;5026051;28;20116;-70
2022/04/22 04:07:49;;;;;;;6.27;3.10;;;;;;;-145.18;100.00;60484.78;5036610;28;20025;-70
2022/04/22 04:15:58;;;;;;;7.47;3.33;;;;;;;-145.18;100.00;60484.78;4953534;28;20043;-70
2022/04/22 04:18:24;;;;;;;7.73;3.33;;;;;;;-145.18;100.00;60484.78;5029297;28;20083;-70
2022/04/22 04:23:33;;;;;;;8.33;3.53;;;;;;;-145.18;100.00;60484.78;5028989;28;20484;-70
2022/04/22 04:25:59;;;;;;;6.87;3.60;;;;;;;-145.18;100.00;60484.78;5042090;28;20036;-70
2022/04/22 04:28:27;;;;;;;7.70;3.40;;;;;;;-145.18;100.00;60484.78;5015957;28;21745;-70
2022/04/22 04:30:53;;;;;;;7.20;3.53;;;;;;;-145.18;100.00;60484.78;5040629;28;20029;-70
2022/04/22 04:33:19;;;;;;;6.83;3.10;;;;;;;-145.18;100.00;60484.78;5049236;28;20017;-70
2022/04/22 04:35:46;;;;;;;6.83;2.97;;;;;;;-145.18;100.00;60484.78;5045868;28;20090;-70
2022/04/22 04:38:12;;;;;;;7.43;3.23;;;;;;;-145.18;100.00;60484.78;5037200;28;20047;-70
2022/04/22 04:40:38;;;;;;;7.93;3.60;;;;;;;-145.18;100.00;60484.78;5024271;28;20029;-70
2022/04/22 04:43:05;;;;;;;6.83;3.10;;;;;;;-145.18;100.00;60484.78;5030567;28;20044;-70
2022/04/22 04:45:31;;;;;;;7.50;3.77;;;;;;;-145.18;100.00;60484.78;5026626;28;20429;-70
2022/04/22 04:47:57;;;;;;;7.90;3.70;;;;;;;-145.18;100.00;60484.78;5029701;28;20064;-70
2022/04/22 04:50:22;;;;;;;4.93;2.67;;;;;;;-145.18;100.00;60484.78;5022394;28;20060;-70
2022/04/22 04:52:48;;;;;;;5.90;2.83;;;;;;;-145.18;100.00;60484.78;5028136;28;20037;-69
2022/04/22 04:55:13;;;;;;;7.67;3.60;;;;;;;-145.18;100.00;60484.78;5017564;28;20033;-69
2022/04/22 04:57:39;;;;;;;7.80;3.00;;;;;;;-145.18;100.00;60484.78;5028413;28;20029;-69
2022/04/22 05:00:06;;;;;;;8.53;3.40;;;;;;;-145.18;100.00;60484.78;5030768;28;20084;-69
2022/04/22 05:02:33;;;;;;;7.70;3.17;;;;;;;-145.18;100.00;60484.78;5038299;28;20071;-69
2022/04/22 05:04:58;;;;;;;7.43;3.40;;;;;;;-145.18;100.00;60484.78;5027001;28;20604;-69
2022/04/22 05:07:24;;;;;;;7.50;3.70;;;;;;;-145.18;100.00;60484.78;5035145;28;20064;-69
2022/04/22 05:09:49;;;;;;;9.07;3.50;;;;;;;-145.18;100.00;60484.78;5023068;28;20764;-69
2022/04/22 05:12:14;;;;;;;6.77;3.50;;;;;;;-145.18;100.00;60484.78;5033234;28;20068;-69
2022/04/22 05:14:40;;;;;;;8.43;3.17;;;;;;;-145.18;100.00;60484.78;5036379;28;20116;-69
2022/04/22 05:17:05;;;;;;;6.60;2.60;;;;;;;-145.18;100.00;60484.78;5046448;28;20060;-69
2022/04/22 05:19:31;;;;;;;5.90;2.87;;;;;;;-145.18;100.00;60484.78;5038198;28;20028;-69
2022/04/22 05:21:56;;;;;;;6.80;2.97;;;;;;;-145.18;100.00;60484.78;5041351;28;20033;-69
2022/04/22 05:24:22;;;;;;;7.33;3.10;;;;;;;-145.18;100.00;60484.78;5026907;28;20408;-69
2022/04/22 05:26:48;;;;;;;7.00;3.10;;;;;;;-145.18;100.00;60484.78;5039267;28;20036;-69
2022/04/22 05:34:42;;;;;;;5.93;2.73;;;;;;;-145.18;100.00;60484.78;5028038;28;20452;-69
2022/04/22 05:37:08;;;;;;;7.80;3.07;;;;;;;-145.18;100.00;60484.78;5036415;28;20037;-69
2022/04/22 05:39:33;;;;;;;6.73;3.23;;;;;;;-145.18;100.00;60484.78;5025524;28;20029;-69
2022/04/22 05:42:02;;;;;;;5.67;2.80;;;;;;;-145.18;100.00;60484.78;5010813;28;20575;-69
2022/04/22 05:44:28;;;;;;;6.73;3.33;;;;;;;-145.18;100.00;60484.78;5024664;28;20505;-69
2022/04/22 05:46:54;;;;;;;5.77;3.47;;;;;;;-145.18;100.00;60484.78;5030363;28;20469;-69
2022/04/22 05:49:20;;;;;;;6.67;3.20;;;;;;;-145.18;100.00;60484.78;5030928;28;20091;-69
2022/04/22 05:51:45;;;;;;;7.93;3.20;;;;;;;-145.18;100.00;60484.78;5031800;28;20565;-69
2022/04/22 05:54:10;;;;;;;7.27;3.47;;;;;;;-145.18;100.00;60484.78;5028329;28;20042;-68
2022/04/22 05:56:36;;;;;;;7.53;3.13;;;;;;;-145.18;100.00;60484.78;5023429;28;20056;-69
2022/04/22 05:59:02;;;;;;;5.27;2.67;;;;;;;-145.18;100.00;60484.78;5033254;28;20034;-69
2022/04/22 06:01:28;;;;;;;4.43;2.40;;;;;;;-145.18;100.00;60484.78;5032636;28;20037;-68
2022/04/22 06:03:53;;;;;;;7.17;2.77;;;;;;;-145.18;100.00;60484.78;5030187;28;20037;-68
2022/04/22 06:06:18;;;;;;;7.07;3.30;;;;;;;-145.18;100.00;60484.78;5027255;28;20031;-68
2022/04/22 06:11:28;;;;;;;6.07;2.90;;;;;;;-145.18;100.00;60484.78;5029242;28;20504;-68
2022/04/22 06:13:53;;;;;;;10.67;4.10;;;;;;;-145.18;100.00;60484.78;5031594;28;20033;-68
2022/04/22 06:16:18;;;;;;;6.13;2.60;;;;;;;-145.18;100.00;60484.78;5025063;28;20037;-69
2022/04/22 06:18:44;;;;;;;8.20;3.27;;;;;;;-145.18;100.00;60484.78;5044657;28;20065;-68
2022/04/22 06:21:09;;;;;;;6.93;3.23;;;;;;;-145.18;100.00;60484.78;5028101;28;20036;-69
2022/04/22 06:23:34;;;;;;;8.83;3.17;;;;;;;-145.18;100.00;60484.78;5016772;28;20116;-69
2022/04/22 06:26:00;;;;;;;9.47;3.57;;;;;;;-145.18;100.00;60484.78;5030416;28;20048;-69
2022/04/22 06:28:25;;;;;;;5.67;2.33;;;;;;;-145.18;100.00;60484.78;5031989;28;20034;-69
2022/04/22 06:30:51;;;;;;;6.67;3.40;;;;;;;-145.18;100.00;60484.78;5019671;28;20061;-68
2022/04/22 06:33:18;;;;;;;6.20;3.17;;;;;;;-145.18;100.00;60484.78;5031775;28;20028;-68
2022/04/22 06:35:44;;;;;;;11.80;3.67;;;;;;;-145.18;100.00;60484.78;5011726;28;20153;-69
2022/04/22 06:38:15;;;;;;;9.20;3.77;;;;;;;-145.18;100.00;60484.78;5032803;28;20029;-68
2022/04/22 06:46:09;;;;;;;9.77;4.03;;;;;;;-145.18;100.00;60484.78;5030817;28;20410;-68
2022/04/22 06:48:35;;;;;;;8.03;3.23;;;;;;;-145.18;100.00;60484.78;5032929;28;20038;-69
2022/04/22 06:51:02;;;;;;;6.57;3.20;;;;;;;-145.18;100.00;60484.78;5026336;28;20124;-69
2022/04/22 06:53:27;;;;;;;6.30;3.10;;;;;;;-145.18;100.00;60484.78;5031422;28;20476;-69
2022/04/22 06:55:58;;;;;;;6.20;2.80;;;;;;;-145.18;100.00;60484.78;5014468;28;20034;-69
2022/04/22 06:58:23;;;;;;;8.90;3.23;;;;;;;-145.18;100.00;60484.78;5022079;28;20033;-69
2022/04/22 07:00:49;;;;;;;7.30;3.50;;;;;;;-145.18;100.00;60484.78;5029282;28;20144;-69
2022/04/22 07:03:16;;;;;;;7.97;2.97;;;;;;;-145.18;100.00;60484.78;5032151;28;20037;-69
2022/04/22 07:05:45;;;;;;;7.83;3.53;;;;;;;-145.18;100.00;60484.78;5022498;28;20029;-69
2022/04/22 07:08:14;;;;;;;6.60;3.50;;;;;;;-145.18;100.00;60484.78;5033034;28;20436;-69
2022/04/22 07:10:41;;;;;;;11.67;3.77;;;;;;;-145.18;100.00;60484.78;5023957;28;20056;-69
2022/04/22 07:13:07;;;;;;;8.13;3.35;;;;;;;-145.18;100.00;60484.78;5031884;28;20029;-69
2022/04/22 07:15:33;;;;;;;7.30;3.10;;;;;;;-145.18;100.00;60484.78;5032451;28;20047;-69
2022/04/22 07:17:59;;;;;;;5.20;2.93;;;;;;;-145.18;100.00;60484.78;5032559;28;20029;-69
2022/04/22 07:20:24;;;;;;;8.03;3.20;;;;;;;-145.18;100.00;60484.78;5032435;28;20084;-69
2022/04/22 07:22:50;;;;;;;7.07;3.60;;;;;;;-145.18;100.00;60484.78;5028597;28;20468;-69
2022/04/22 07:25:16;;;;;;;7.17;3.47;;;;;;;-145.18;100.00;60484.78;5012884;28;20030;-69
2022/04/22 07:27:46;;;;;;;6.17;3.23;;;;;;;-145.18;100.00;60484.78;5021194;28;20037;-69
2022/04/22 07:30:14;;;;;;;8.27;3.23;;;;;;;-145.18;100.00;60484.78;5018905;28;20040;-69
2022/04/22 07:32:41;;;;;;;8.20;3.70;;;;;;;-145.18;100.00;60484.78;5012297;28;20061;-69
2022/04/22 07:35:11;;;;;;;8.05;3.30;;;;;;;-145.18;100.00;60484.78;5011917;28;20068;-69
2022/04/22 07:37:40;;;;;;;6.82;3.40;;;;;;;-145.18;100.00;60484.78;5030071;28;20029;-69
2022/04/22 07:40:07;;;;;;;7.50;3.30;;;;;;;-145.18;100.00;60484.78;5019223;28;20026;-69
2022/04/22 07:42:34;;;;;;;7.28;3.28;;;;;;;-145.18;100.00;60484.78;5015415;28;20025;-69
2022/04/22 07:47:47;;;;;;;9.85;3.40;;;;;;;-145.18;100.00;60484.78;5016262;28;20045;-69
2022/04/22 07:50:14;;;;;;;7.18;3.15;;;;;;;-145.18;100.00;60484.78;5018794;28;20038;-69
2022/04/22 07:52:44;;;;;;;6.65;2.78;;;;;;;-145.18;100.00;60484.78;5030016;28;20043;-69
2022/04/22 07:55:10;;;;;;;7.20;3.25;;;;;;;-145.18;100.00;60484.78;5019301;28;20038;-69
2022/04/22 07:57:35;;;;;;;7.35;3.60;;;;;;;-145.18;100.00;60484.78;5021380;28;20037;-69
2022/04/22 08:00:00;;;;;;;8.65;3.40;;;;;;;-145.18;100.00;60484.78;5030815;28;20393;-69
2022/04/22 08:02:26;;;;;;;13.20;3.65;;;;;;;-145.18;100.00;60484.78;5030850;28;20025;-69
2022/04/22 08:04:51;;;;;;;8.18;3.60;;;;;;;-145.18;100.00;60484.78;5021693;28;20116;-69
2022/04/22 08:07:18;;;;;;;8.45;3.42;;;;;;;-145.18;100.00;60484.78;5011853;28;20055;-69
2022/04/22 08:09:45;;;;;;;6.15;3.50;;;;;;;-145.18;100.00;60484.78;5022853;28;20029;-69
2022/04/22 08:12:12;;;;;;;8.07;3.17;;;;;;;-145.18;100.00;60484.78;5031861;28;20080;-69
2022/04/22 08:14:38;;;;;;;6.35;3.05;;;;;;;-145.18;100.00;60484.78;5030503;28;20116;-69
2022/04/22 08:17:04;;;;;;;8.38;3.53;;;;;;;-145.18;100.00;60484.78;5031512;28;20052;-69
2022/04/22 08:19:29;;;;;;;7.18;3.00;;;;;;;-145.18;100.00;60484.78;5028410;28;20036;-69
2022/04/22 08:21:55;;;;;;;7.60;3.17;;;;;;;-145.18;100.00;60484.78;5031284;28;20036;-69
2022/04/22 08:24:20;;;;;;;7.90;3.13;;;;;;;-145.18;100.00;60484.78;5025795;28;20379;-69
2022/04/22 08:26:46;;;;;;;8.60;3.22;;;;;;;-145.18;100.00;60484.78;5011614;28;20037;-69
2022/04/22 08:29:11;;;;;;;5.78;3.00;;;;;;;-145.18;100.00;60484.78;5027200;28;20032;-69
2022/04/22 08:31:38;;;;;;;7.53;3.00;;;;;;;-145.18;100.00;60484.78;5030927;28;20143;-69
2022/04/22 08:34:03;;;;;;;6.78;3.25;;;;;;;-145.18;100.00;60484.78;5012778;28;20037;-69
2022/04/22 08:36:30;;;;;;;9.60;3.50;;;;;;;-145.18;100.00;60484.78;5030313;28;20029;-70
2022/04/22 08:38:57;;;;;;;8.25;2.90;;;;;;;-145.18;100.00;60484.78;5030699;28;20029;-69
2022/04/22 08:41:23;;;;;;;5.75;2.97;;;;;;;-145.18;100.00;60484.78;5031032;28;20029;-69
2022/04/22 08:43:51;;;;;;;5.80;2.85;;;;;;;-145.18;100.00;60484.78;5028161;28;20520;-70
2022/04/22 08:51:47;;;;;;;7.20;3.00;;;;;;;-145.18;100.00;60484.78;5022564;28;20494;-69
2022/04/22 08:54:13;;;;;;;5.85;3.15;;;;;;;-145.18;100.00;60484.78;5026246;28;20034;-69
2022/04/22 08:56:39;;;;;;;9.77;3.40;;;;;;;-145.18;100.00;60484.78;5026409;28;20030;-69
2022/04/22 08:59:05;;;;;;;7.25;2.83;;;;;;;-145.18;100.00;60484.78;5024477;28;20026;-69
2022/04/22 09:01:31;;;;;;;8.45;3.72;;;;;;;-145.18;100.00;60484.78;5020391;28;20037;-69
2022/04/22 09:03:57;;;;;;;8.10;3.28;;;;;;;-145.18;100.00;60484.78;5027759;28;20044;-69
2022/04/22 09:06:25;;;;;;;12.10;3.58;;;;;;;-145.18;100.00;60484.78;5024012;28;20473;-69
2022/04/22 09:08:51;;;;;;;6.03;3.15;;;;;;;-145.18;100.00;60484.78;5026786;28;20053;-70
2022/04/22 09:11:17;;;;;;;6.20;2.95;;;;;;;-145.18;100.00;60484.78;5018657;28;20037;-69
2022/04/22 09:13:42;;;;;;;6.07;2.90;;;;;;;-145.18;100.00;60484.78;5026186;28;20025;-69
2022/04/22 09:16:18;;;;;;;9.10;3.60;;;;;;;-145.18;100.00;60484.78;5011193;28;20029;-69
2022/04/22 09:18:45;;;;;;;7.95;3.60;;;;;;;-145.18;100.00;60484.78;5029179;28;20503;-69
2022/04/22 09:21:15;;;;;;;9.80;3.08;;;;;;;-145.18;100.00;60484.78;5030950;28;20040;-69
2022/04/22 09:23:40;;;;;;;8.05;3.50;;;;;;;-145.18;100.00;60484.78;5018970;28;20041;-69
2022/04/22 09:26:19;;;;;;;8.60;3.15;;;;;;;-145.18;100.00;60484.78;5014829;28;20029;-69
2022/04/22 09:29:05;;;;;;;5.95;2.88;;;;;;;-145.18;100.00;60484.78;5029847;28;20060;-69
2022/04/22 09:31:44;;;;;;;7.60;3.20;;;;;;;-145.18;100.00;60484.78;5030723;28;20033;-69
2022/04/22 09:34:10;;;;;;;5.43;2.60;;;;;;;-145.18;100.00;60484.78;5030137;28;20040;-70
2022/04/22 09:45:03;;;;;;;6.60;3.25;;;;;;;-145.18;100.00;60484.78;5028991;28;20429;-69
2022/04/22 09:47:31;;;;;;;6.38;3.00;;;;;;;-145.18;100.00;60484.78;5030435;28;20028;-69
2022/04/22 09:49:58;;;;;;;11.15;3.53;;;;;;;-145.18;100.00;60484.78;5029679;28;20079;-70
2022/04/22 09:52:30;;;;;;;7.32;3.15;;;;;;;-145.18;100.00;60484.78;5014457;28;20033;-69
2022/04/22 09:55:02;;;;;;;6.85;3.00;;;;;;;-145.18;100.00;60484.78;5010731;28;20065;-70
2022/04/22 09:57:53;;;;;;;8.00;3.15;;;;;;;-145.18;100.00;60484.78;5013319;28;20032;-70
2022/04/22 10:00:23;;;;;;;9.85;3.25;;;;;;;-145.18;100.00;60484.78;5018043;28;20052;-70
2022/04/22 10:02:51;;;;;;;6.88;3.20;;;;;;;-145.18;100.00;60484.78;5032884;28;20025;-69
2022/04/22 10:05:19;;;;;;;6.10;2.72;;;;;;;-145.18;100.00;60484.78;5013895;28;20080;-69
2022/04/22 10:07:44;;;;;;;6.70;2.92;;;;;;;-145.18;100.00;60484.78;5019181;28;20028;-70
2022/04/22 10:10:11;;;;;;;9.40;3.20;;;;;;;-145.18;100.00;60484.78;5021489;28;20026;-70
2022/04/22 10:12:38;;;;;;;5.05;2.50;;;;;;;-145.18;100.00;60484.78;5000646;28;20017;-70
2022/04/22 10:15:08;;;;;;;5.90;2.67;;;;;;;-145.18;100.00;60484.78;5031026;28;20033;-70
2022/04/22 10:17:34;;;;;;;6.13;2.90;;;;;;;-145.18;100.00;60484.78;5033186;28;20029;-69
2022/04/22 10:20:01;;;;;;;5.50;2.75;;;;;;;-145.18;100.00;60484.78;5009220;28;20017;-70
2022/04/22 10:22:27;;;;;;;5.97;2.63;;;;;;;-145.18;100.00;60484.78;5033065;28;20029;-69
2022/04/22 10:24:54;;;;;;;7.13;3.22;;;;;;;-145.18;100.00;60484.78;5024799;28;20161;-70
2022/04/22 10:27:21;;;;;;;6.65;2.95;;;;;;;-145.18;100.00;60484.78;5031458;28;20029;-69
2022/04/22 10:29:47;;;;;;;7.78;3.20;;;;;;;-145.18;100.00;60484.78;5026448;28;20109;-69
2022/04/22 10:32:15;;;;;;;7.95;3.17;;;;;;;-145.18;100.00;60484.78;5028752;28;20438;-69
2022/04/22 10:34:43;;;;;;;8.68;3.00;;;;;;;-145.18;100.00;60484.78;5027157;28;20056;-69
2022/04/22 10:37:28;;;;;;;7.65;3.40;;;;;;;-145.18;100.00;60484.78;5032196;28;20025;-69
2022/04/22 10:39:55;;;;;;;8.30;3.58;;;;;;;-145.18;100.00;60484.78;5022520;28;20053;-69
2022/04/22 10:42:33;;;;;;;6.80;2.83;;;;;;;-145.18;100.00;60484.78;5030113;28;20064;-70
2022/04/22 10:47:52;;;;;;;7.13;3.40;;;;;;;-145.18;100.00;60484.78;5032719;28;20519;-69
2022/04/22 10:50:26;;;;;;;9.07;3.30;;;;;;;-145.18;100.00;60484.78;5020531;28;20034;-69
2022/04/22 10:53:25;;;;;;;8.50;3.50;;;;;;;-145.18;100.00;60484.78;5032162;28;20033;-69
2022/04/22 10:55:51;;;;;;;5.20;2.70;;;;;;;-145.18;100.00;60484.78;4971486;28;20058;-70
2022/04/22 10:58:21;;;;;;;7.88;3.30;;;;;;;-145.18;100.00;60484.78;5030430;28;20473;-69
2022/04/22 11:00:59;;;;;;;5.65;3.00;;;;;;;-145.18;100.00;60484.78;5025173;28;20021;-70
2022/04/22 11:03:31;;;;;;;6.90;3.20;;;;;;;-145.18;100.00;60484.78;5024631;28;20057;-69
2022/04/22 11:06:01;;;;;;;7.22;3.42;;;;;;;-145.18;100.00;60484.78;5027599;28;20029;-69
2022/04/22 11:08:31;;;;;;;5.72;3.33;;;;;;;-145.18;100.00;60484.78;5017435;28;20030;-69
2022/04/22 11:11:00;;;;;;;5.95;2.80;;;;;;;-145.18;100.00;60484.78;5031298;28;20021;-69
2022/04/22 11:13:38;;;;;;;7.25;4.00;;;;;;;-145.18;100.00;60484.78;5027779;28;20032;-69
2022/04/22 11:16:13;;;;;;;7.45;3.92;;;;;;;-145.18;100.00;60484.78;5012961;28;20030;-69
2022/04/22 11:18:40;;;;;;;10.65;4.22;;;;;;;-145.18;100.00;60484.78;5025307;28;20516;-69
2022/04/22 11:21:15;;;;;;;10.15;4.15;;;;;;;-145.18;100.00;60484.78;5029155;28;20033;-69
2022/04/22 11:23:46;;;;;;;7.05;3.95;;;;;;;-145.18;100.00;60484.78;5031506;28;20052;-69
2022/04/22 11:26:16;;;;;;;6.28;3.45;;;;;;;-145.18;100.00;60484.78;5025236;28;20143;-68
2022/04/22 11:28:45;;;;;;;11.30;4.20;;;;;;;-145.18;100.00;60484.78;5031077;28;20033;-68
2022/04/22 11:31:12;;;;;;;11.45;4.65;;;;;;;-145.18;100.00;60484.78;5015954;28;20026;-69
2022/04/22 11:33:40;;;;;;;11.95;4.40;;;;;;;-145.18;100.00;60484.78;5025698;28;20033;-68
2022/04/22 11:36:07;;;;;;;9.52;4.63;;;;;;;-145.18;100.00;60484.78;5029873;28;20058;-69
2022/04/22 11:38:32;;;;;;;7.97;4.25;;;;;;;-145.18;100.00;60484.78;5029343;28;20023;-68
2022/04/22 11:40:58;;;;;;;8.93;4.05;;;;;;;-145.18;100.00;60484.78;5013077;28;20116;-69
2022/04/22 11:43:23;;;;;;;8.80;3.88;;;;;;;-145.18;100.00;60484.78;5026821;28;20864;-68
2022/04/22 11:45:50;;;;;;;7.70;3.78;;;;;;;-145.18;100.00;60484.78;5018166;28;20021;-68
2022/04/22 11:48:21;;;;;;;7.55;4.82;;;;;;;-145.18;100.00;60484.78;5031132;28;20029;-69
2022/04/22 11:50:47;;;;;;;8.38;4.50;;;;;;;-145.18;100.00;60484.78;5016818;28;20030;-69
2022/04/22 11:53:17;;;;;;;9.30;4.32;;;;;;;-145.18;100.00;60484.78;5031377;28;20486;-69
2022/04/22 11:55:45;;;;;;;6.55;3.75;;;;;;;-145.18;100.00;60484.78;5015145;28;20034;-70
2022/04/22 11:58:11;;;;;;;7.82;4.43;;;;;;;-145.18;100.00;60484.78;5024907;28;20021;-69
2022/04/22 12:06:13;;;;;;;8.48;4.88;;;;;;;-145.18;100.00;60484.78;5030980;28;20060;-69
2022/04/22 12:08:49;;;;;;;9.43;5.45;;;;;;;-145.18;100.00;60484.78;5030342;28;20053;-69